sensor_id;sensor_type;location;lat;lon;timestamp;P1;durP1;ratioP1;P2;durP2;ratioP2
70744;SDS011;59284;31.390;34.904;2022-08-02T00:01:13;138.85;;;49.28;;
70744;SDS011;59284;31.390;34.904;2022-08-02T00:03:40;191.30;;;44.58;;
70744;SDS011;59284;31.390;34.904;2022-08-02T00:06:06;145.37;;;46.70;;
70744;SDS011;59284;31.390;34.904;2022-08-02T00:08:32;194.60;;;45.33;;
70744;SDS011;59284;31.390;34.904;2022-08-02T00:10:58;148.93;;;45.10;;
70744;SDS011;59284;31.390;34.904;2022-08-02T00:13:26;102.65;;;42.38;;
70744;SDS011;59284;31.390;34.904;2022-08-02T00:15:53;102.97;;;44.00;;
70744;SDS011;59284;31.390;34.904;2022-08-02T00:18:19;90.17;;;40.47;;
70744;SDS011;59284;31.390;34.904;2022-08-02T00:20:45;88.80;;;40.00;;
70744;SDS011;59284;31.390;34.904;2022-08-02T00:23:11;77.93;;;38.83;;
70744;SDS011;59284;31.390;34.904;2022-08-02T00:25:37;82.43;;;39.57;;
70744;SDS011;59284;31.390;34.904;2022-08-02T00:28:03;86.22;;;38.58;;
70744;SDS011;59284;31.390;34.904;2022-08-02T00:30:32;74.63;;;38.88;;
70744;SDS011;59284;31.390;34.904;2022-08-02T00:32:58;88.03;;;37.08;;
70744;SDS011;59284;31.390;34.904;2022-08-02T00:35:26;69.60;;;36.07;;
70744;SDS011;59284;31.390;34.904;2022-08-02T00:37:53;69.57;;;35.40;;
70744;SDS011;59284;31.390;34.904;2022-08-02T00:40:21;77.47;;;37.88;;
70744;SDS011;59284;31.390;34.904;2022-08-02T00:45:32;87.72;;;36.65;;
70744;SDS011;59284;31.390;34.904;2022-08-02T00:48:00;90.80;;;39.07;;
70744;SDS011;59284;31.390;34.904;2022-08-02T00:50:27;85.35;;;39.40;;
70744;SDS011;59284;31.390;34.904;2022-08-02T00:52:53;83.85;;;39.25;;
70744;SDS011;59284;31.390;34.904;2022-08-02T00:55:19;76.20;;;35.22;;
70744;SDS011;59284;31.390;34.904;2022-08-02T00:57:46;71.93;;;33.10;;
70744;SDS011;59284;31.390;34.904;2022-08-02T01:00:12;80.03;;;33.93;;
70744;SDS011;59284;31.390;34.904;2022-08-02T01:02:39;78.85;;;36.03;;
70744;SDS011;59284;31.390;34.904;2022-08-02T01:05:06;76.88;;;36.10;;
70744;SDS011;59284;31.390;34.904;2022-08-02T01:07:32;79.65;;;36.65;;
70744;SDS011;59284;31.390;34.904;2022-08-02T01:09:59;69.82;;;31.38;;
70744;SDS011;59284;31.390;34.904;2022-08-02T01:12:30;61.77;;;30.47;;
70744;SDS011;59284;31.390;34.904;2022-08-02T01:14:57;83.68;;;32.53;;
70744;SDS011;59284;31.390;34.904;2022-08-02T01:27:59;60.80;;;27.23;;
70744;SDS011;59284;31.390;34.904;2022-08-02T01:30:43;59.45;;;28.25;;
70744;SDS011;59284;31.390;34.904;2022-08-02T01:33:21;61.50;;;30.63;;
70744;SDS011;59284;31.390;34.904;2022-08-02T01:35:52;65.45;;;30.35;;
70744;SDS011;59284;31.390;34.904;2022-08-02T01:38:25;66.70;;;29.77;;
70744;SDS011;59284;31.390;34.904;2022-08-02T01:40:57;65.47;;;29.97;;
70744;SDS011;59284;31.390;34.904;2022-08-02T01:43:34;62.55;;;30.13;;
70744;SDS011;59284;31.390;34.904;2022-08-02T01:46:02;62.35;;;30.08;;
70744;SDS011;59284;31.390;34.904;2022-08-02T01:48:30;63.08;;;29.65;;
70744;SDS011;59284;31.390;34.904;2022-08-02T01:50:59;66.72;;;30.92;;
70744;SDS011;59284;31.390;34.904;2022-08-02T01:53:29;77.03;;;31.77;;
70744;SDS011;59284;31.390;34.904;2022-08-02T01:55:57;69.63;;;30.98;;
70744;SDS011;59284;31.390;34.904;2022-08-02T01:58:28;58.35;;;29.60;;
70744;SDS011;59284;31.390;34.904;2022-08-02T02:00:58;52.20;;;26.00;;
70744;SDS011;59284;31.390;34.904;2022-08-02T02:03:30;61.55;;;29.67;;
70744;SDS011;59284;31.390;34.904;2022-08-02T02:05:58;55.57;;;26.57;;
70744;SDS011;59284;31.390;34.904;2022-08-02T02:08:33;65.30;;;30.52;;
70744;SDS011;59284;31.390;34.904;2022-08-02T02:11:07;60.28;;;28.27;;
70744;SDS011;59284;31.390;34.904;2022-08-02T02:13:36;57.03;;;28.10;;
70744;SDS011;59284;31.390;34.904;2022-08-02T02:16:06;60.30;;;29.02;;
70744;SDS011;59284;31.390;34.904;2022-08-02T02:18:36;55.43;;;27.37;;
70744;SDS011;59284;31.390;34.904;2022-08-02T02:21:06;60.63;;;29.80;;
70744;SDS011;59284;31.390;34.904;2022-08-02T02:23:32;56.47;;;27.05;;
70744;SDS011;59284;31.390;34.904;2022-08-02T02:25:58;52.63;;;26.90;;
70744;SDS011;59284;31.390;34.904;2022-08-02T02:28:28;54.63;;;27.48;;
70744;SDS011;59284;31.390;34.904;2022-08-02T02:31:01;51.57;;;24.33;;
70744;SDS011;59284;31.390;34.904;2022-08-02T02:33:36;53.53;;;26.60;;
70744;SDS011;59284;31.390;34.904;2022-08-02T02:36:08;54.40;;;26.17;;
70744;SDS011;59284;31.390;34.904;2022-08-02T02:38:42;54.17;;;27.13;;
70744;SDS011;59284;31.390;34.904;2022-08-02T02:41:13;46.13;;;26.20;;
70744;SDS011;59284;31.390;34.904;2022-08-02T02:44:47;54.00;;;26.53;;
70744;SDS011;59284;31.390;34.904;2022-08-02T02:47:27;49.05;;;25.50;;
70744;SDS011;59284;31.390;34.904;2022-08-02T02:52:35;46.72;;;23.73;;
70744;SDS011;59284;31.390;34.904;2022-08-02T02:55:02;43.10;;;24.83;;
70744;SDS011;59284;31.390;34.904;2022-08-02T02:57:30;47.40;;;23.83;;
70744;SDS011;59284;31.390;34.904;2022-08-02T02:59:56;47.92;;;24.98;;
70744;SDS011;59284;31.390;34.904;2022-08-02T03:02:31;44.03;;;23.25;;
70744;SDS011;59284;31.390;34.904;2022-08-02T03:05:13;44.08;;;24.08;;
70744;SDS011;59284;31.390;34.904;2022-08-02T03:07:43;29.58;;;17.70;;
70744;SDS011;59284;31.390;34.904;2022-08-02T03:10:12;31.27;;;18.83;;
70744;SDS011;59284;31.390;34.904;2022-08-02T03:12:37;30.40;;;19.65;;
70744;SDS011;59284;31.390;34.904;2022-08-02T03:17:47;34.45;;;19.48;;
70744;SDS011;59284;31.390;34.904;2022-08-02T03:20:24;36.03;;;19.88;;
70744;SDS011;59284;31.390;34.904;2022-08-02T03:22:50;31.90;;;19.27;;
70744;SDS011;59284;31.390;34.904;2022-08-02T03:25:34;27.25;;;18.08;;
70744;SDS011;59284;31.390;34.904;2022-08-02T03:28:58;25.30;;;16.77;;
70744;SDS011;59284;31.390;34.904;2022-08-02T03:32:21;30.48;;;17.63;;
70744;SDS011;59284;31.390;34.904;2022-08-02T03:49:26;24.23;;;16.50;;
70744;SDS011;59284;31.390;34.904;2022-08-02T03:51:57;24.20;;;15.88;;
70744;SDS011;59284;31.390;34.904;2022-08-02T03:54:34;23.13;;;13.77;;
70744;SDS011;59284;31.390;34.904;2022-08-02T03:57:00;23.70;;;13.90;;
70744;SDS011;59284;31.390;34.904;2022-08-02T03:59:26;21.95;;;13.77;;
70744;SDS011;59284;31.390;34.904;2022-08-02T04:01:55;23.17;;;14.83;;
70744;SDS011;59284;31.390;34.904;2022-08-02T04:04:21;20.40;;;12.45;;
70744;SDS011;59284;31.390;34.904;2022-08-02T04:06:47;20.25;;;13.52;;
70744;SDS011;59284;31.390;34.904;2022-08-02T04:09:13;14.93;;;11.87;;
70744;SDS011;59284;31.390;34.904;2022-08-02T04:11:39;16.85;;;11.10;;
70744;SDS011;59284;31.390;34.904;2022-08-02T04:14:08;20.37;;;13.37;;
70744;SDS011;59284;31.390;34.904;2022-08-02T04:19:13;16.58;;;11.82;;
70744;SDS011;59284;31.390;34.904;2022-08-02T04:21:42;20.52;;;12.27;;
70744;SDS011;59284;31.390;34.904;2022-08-02T04:24:10;20.80;;;12.40;;
70744;SDS011;59284;31.390;34.904;2022-08-02T04:26:38;20.10;;;12.70;;
70744;SDS011;59284;31.390;34.904;2022-08-02T04:29:08;18.10;;;11.75;;
70744;SDS011;59284;31.390;34.904;2022-08-02T04:31:35;17.25;;;11.48;;
70744;SDS011;59284;31.390;34.904;2022-08-02T04:34:02;17.05;;;11.98;;
70744;SDS011;59284;31.390;34.904;2022-08-02T04:36:28;16.90;;;11.27;;
70744;SDS011;59284;31.390;34.904;2022-08-02T04:38:55;19.47;;;12.80;;
70744;SDS011;59284;31.390;34.904;2022-08-02T04:41:21;23.23;;;11.57;;
70744;SDS011;59284;31.390;34.904;2022-08-02T04:43:47;17.67;;;11.13;;
70744;SDS011;59284;31.390;34.904;2022-08-02T04:46:12;19.75;;;11.57;;
70744;SDS011;59284;31.390;34.904;2022-08-02T04:48:38;17.27;;;10.60;;
70744;SDS011;59284;31.390;34.904;2022-08-02T04:51:04;17.02;;;11.13;;
70744;SDS011;59284;31.390;34.904;2022-08-02T04:53:30;18.30;;;11.20;;
70744;SDS011;59284;31.390;34.904;2022-08-02T04:55:55;17.10;;;11.38;;
70744;SDS011;59284;31.390;34.904;2022-08-02T04:58:21;14.50;;;10.50;;
70744;SDS011;59284;31.390;34.904;2022-08-02T05:00:46;16.30;;;10.90;;
70744;SDS011;59284;31.390;34.904;2022-08-02T05:03:12;15.07;;;10.27;;
70744;SDS011;59284;31.390;34.904;2022-08-02T05:05:38;18.65;;;11.73;;
70744;SDS011;59284;31.390;34.904;2022-08-02T05:08:04;18.35;;;10.50;;
70744;SDS011;59284;31.390;34.904;2022-08-02T05:10:30;13.97;;;9.23;;
70744;SDS011;59284;31.390;34.904;2022-08-02T05:12:56;17.55;;;10.35;;
70744;SDS011;59284;31.390;34.904;2022-08-02T05:15:21;15.50;;;9.77;;
70744;SDS011;59284;31.390;34.904;2022-08-02T05:17:47;16.50;;;10.83;;
70744;SDS011;59284;31.390;34.904;2022-08-02T05:20:13;18.02;;;10.80;;
70744;SDS011;59284;31.390;34.904;2022-08-02T05:22:40;16.52;;;10.88;;
70744;SDS011;59284;31.390;34.904;2022-08-02T05:25:07;15.53;;;10.23;;
70744;SDS011;59284;31.390;34.904;2022-08-02T05:27:33;15.63;;;9.95;;
70744;SDS011;59284;31.390;34.904;2022-08-02T05:29:59;15.40;;;10.02;;
70744;SDS011;59284;31.390;34.904;2022-08-02T05:32:25;15.63;;;10.73;;
70744;SDS011;59284;31.390;34.904;2022-08-02T05:34:51;14.98;;;9.82;;
70744;SDS011;59284;31.390;34.904;2022-08-02T05:37:17;14.65;;;10.00;;
70744;SDS011;59284;31.390;34.904;2022-08-02T05:39:43;15.43;;;10.30;;
70744;SDS011;59284;31.390;34.904;2022-08-02T05:42:09;17.10;;;10.10;;
70744;SDS011;59284;31.390;34.904;2022-08-02T05:44:35;15.23;;;9.23;;
70744;SDS011;59284;31.390;34.904;2022-08-02T05:47:01;14.48;;;9.30;;
70744;SDS011;59284;31.390;34.904;2022-08-02T05:49:27;14.77;;;9.00;;
70744;SDS011;59284;31.390;34.904;2022-08-02T05:52:01;13.63;;;9.00;;
70744;SDS011;59284;31.390;34.904;2022-08-02T06:00:09;15.25;;;9.20;;
70744;SDS011;59284;31.390;34.904;2022-08-02T06:05:20;13.20;;;8.15;;
70744;SDS011;59284;31.390;34.904;2022-08-02T06:07:47;12.35;;;9.55;;
70744;SDS011;59284;31.390;34.904;2022-08-02T06:10:15;14.30;;;8.47;;
70744;SDS011;59284;31.390;34.904;2022-08-02T06:15:16;12.02;;;7.88;;
70744;SDS011;59284;31.390;34.904;2022-08-02T06:17:43;14.38;;;8.32;;
70744;SDS011;59284;31.390;34.904;2022-08-02T06:20:12;14.45;;;8.80;;
70744;SDS011;59284;31.390;34.904;2022-08-02T06:22:40;13.27;;;8.13;;
70744;SDS011;59284;31.390;34.904;2022-08-02T06:25:08;15.57;;;8.18;;
70744;SDS011;59284;31.390;34.904;2022-08-02T06:27:38;15.63;;;7.78;;
70744;SDS011;59284;31.390;34.904;2022-08-02T06:30:05;12.85;;;7.95;;
70744;SDS011;59284;31.390;34.904;2022-08-02T06:32:32;13.45;;;9.00;;
70744;SDS011;59284;31.390;34.904;2022-08-02T06:34:58;17.60;;;8.70;;
70744;SDS011;59284;31.390;34.904;2022-08-02T06:37:40;11.40;;;7.50;;
70744;SDS011;59284;31.390;34.904;2022-08-02T06:40:22;13.77;;;7.78;;
70744;SDS011;59284;31.390;34.904;2022-08-02T06:43:12;15.50;;;8.63;;
70744;SDS011;59284;31.390;34.904;2022-08-02T06:45:51;12.45;;;8.10;;
70744;SDS011;59284;31.390;34.904;2022-08-02T06:48:16;11.10;;;7.33;;
70744;SDS011;59284;31.390;34.904;2022-08-02T06:50:43;12.75;;;8.35;;
70744;SDS011;59284;31.390;34.904;2022-08-02T06:53:09;14.47;;;8.40;;
70744;SDS011;59284;31.390;34.904;2022-08-02T06:55:35;11.45;;;8.00;;
70744;SDS011;59284;31.390;34.904;2022-08-02T06:58:01;11.35;;;8.05;;
70744;SDS011;59284;31.390;34.904;2022-08-02T07:00:29;12.18;;;7.40;;
70744;SDS011;59284;31.390;34.904;2022-08-02T07:02:56;9.80;;;7.03;;
70744;SDS011;59284;31.390;34.904;2022-08-02T07:05:22;12.40;;;7.80;;
70744;SDS011;59284;31.390;34.904;2022-08-02T07:07:48;12.52;;;8.02;;
70744;SDS011;59284;31.390;34.904;2022-08-02T07:10:14;14.77;;;7.57;;
70744;SDS011;59284;31.390;34.904;2022-08-02T07:12:41;15.77;;;8.27;;
70744;SDS011;59284;31.390;34.904;2022-08-02T07:15:07;10.43;;;7.88;;
70744;SDS011;59284;31.390;34.904;2022-08-02T07:17:34;14.15;;;8.10;;
70744;SDS011;59284;31.390;34.904;2022-08-02T07:20:00;12.55;;;7.55;;
70744;SDS011;59284;31.390;34.904;2022-08-02T07:22:26;13.37;;;7.83;;
70744;SDS011;59284;31.390;34.904;2022-08-02T07:24:53;13.93;;;8.02;;
70744;SDS011;59284;31.390;34.904;2022-08-02T07:27:20;13.70;;;8.00;;
70744;SDS011;59284;31.390;34.904;2022-08-02T07:29:46;13.65;;;7.93;;
70744;SDS011;59284;31.390;34.904;2022-08-02T07:32:11;12.10;;;7.40;;
70744;SDS011;59284;31.390;34.904;2022-08-02T07:34:38;11.38;;;7.80;;
70744;SDS011;59284;31.390;34.904;2022-08-02T07:37:03;13.30;;;7.83;;
70744;SDS011;59284;31.390;34.904;2022-08-02T07:39:29;11.43;;;8.38;;
70744;SDS011;59284;31.390;34.904;2022-08-02T07:41:56;15.13;;;8.20;;
70744;SDS011;59284;31.390;34.904;2022-08-02T07:44:22;14.27;;;8.20;;
70744;SDS011;59284;31.390;34.904;2022-08-02T07:46:47;11.93;;;8.13;;
70744;SDS011;59284;31.390;34.904;2022-08-02T07:49:13;13.83;;;6.80;;
70744;SDS011;59284;31.390;34.904;2022-08-02T07:51:45;12.63;;;7.97;;
70744;SDS011;59284;31.390;34.904;2022-08-02T07:54:11;14.93;;;7.80;;
70744;SDS011;59284;31.390;34.904;2022-08-02T07:56:37;11.15;;;7.55;;
70744;SDS011;59284;31.390;34.904;2022-08-02T07:59:09;16.48;;;8.52;;
70744;SDS011;59284;31.390;34.904;2022-08-02T08:01:35;12.87;;;8.37;;
70744;SDS011;59284;31.390;34.904;2022-08-02T08:04:02;14.70;;;8.77;;
70744;SDS011;59284;31.390;34.904;2022-08-02T08:06:28;13.63;;;8.25;;
70744;SDS011;59284;31.390;34.904;2022-08-02T08:08:55;10.10;;;7.73;;
70744;SDS011;59284;31.390;34.904;2022-08-02T08:11:21;10.68;;;7.55;;
70744;SDS011;59284;31.390;34.904;2022-08-02T08:13:47;17.42;;;7.95;;
70744;SDS011;59284;31.390;34.904;2022-08-02T08:16:12;12.67;;;7.80;;
70744;SDS011;59284;31.390;34.904;2022-08-02T08:18:38;13.65;;;8.35;;
70744;SDS011;59284;31.390;34.904;2022-08-02T08:21:04;14.23;;;7.77;;
70744;SDS011;59284;31.390;34.904;2022-08-02T08:23:30;13.57;;;8.38;;
70744;SDS011;59284;31.390;34.904;2022-08-02T08:25:56;10.35;;;6.03;;
70744;SDS011;59284;31.390;34.904;2022-08-02T08:28:22;11.00;;;7.30;;
70744;SDS011;59284;31.390;34.904;2022-08-02T08:30:47;11.35;;;8.50;;
70744;SDS011;59284;31.390;34.904;2022-08-02T08:33:13;17.87;;;8.10;;
70744;SDS011;59284;31.390;34.904;2022-08-02T08:35:40;16.20;;;8.40;;
70744;SDS011;59284;31.390;34.904;2022-08-02T08:38:07;15.40;;;8.07;;
70744;SDS011;59284;31.390;34.904;2022-08-02T08:40:34;17.02;;;7.63;;
70744;SDS011;59284;31.390;34.904;2022-08-02T08:43:01;12.70;;;8.52;;
70744;SDS011;59284;31.390;34.904;2022-08-02T08:45:27;12.52;;;7.88;;
70744;SDS011;59284;31.390;34.904;2022-08-02T08:47:55;17.03;;;7.67;;
70744;SDS011;59284;31.390;34.904;2022-08-02T08:50:29;13.80;;;7.50;;
70744;SDS011;59284;31.390;34.904;2022-08-02T08:53:07;11.13;;;7.25;;
70744;SDS011;59284;31.390;34.904;2022-08-02T08:55:35;11.90;;;6.82;;
70744;SDS011;59284;31.390;34.904;2022-08-02T08:58:02;11.70;;;6.40;;
70744;SDS011;59284;31.390;34.904;2022-08-02T09:00:29;12.23;;;7.43;;
70744;SDS011;59284;31.390;34.904;2022-08-02T09:02:57;16.77;;;6.80;;
70744;SDS011;59284;31.390;34.904;2022-08-02T09:05:26;15.25;;;6.47;;
70744;SDS011;59284;31.390;34.904;2022-08-02T09:07:51;12.73;;;6.83;;
70744;SDS011;59284;31.390;34.904;2022-08-02T09:15:51;13.88;;;6.82;;
70744;SDS011;59284;31.390;34.904;2022-08-02T09:18:20;10.38;;;5.90;;
70744;SDS011;59284;31.390;34.904;2022-08-02T09:21:01;9.87;;;6.73;;
70744;SDS011;59284;31.390;34.904;2022-08-02T09:23:48;11.52;;;5.97;;
70744;SDS011;59284;31.390;34.904;2022-08-02T09:28:45;13.55;;;6.60;;
70744;SDS011;59284;31.390;34.904;2022-08-02T09:31:16;12.10;;;6.80;;
70744;SDS011;59284;31.390;34.904;2022-08-02T09:33:45;13.37;;;6.17;;
70744;SDS011;59284;31.390;34.904;2022-08-02T09:36:22;14.05;;;5.90;;
70744;SDS011;59284;31.390;34.904;2022-08-02T09:38:52;12.35;;;5.95;;
70744;SDS011;59284;31.390;34.904;2022-08-02T09:41:29;11.13;;;6.03;;
70744;SDS011;59284;31.390;34.904;2022-08-02T09:43:57;12.50;;;6.22;;
70744;SDS011;59284;31.390;34.904;2022-08-02T09:46:24;10.53;;;6.23;;
70744;SDS011;59284;31.390;34.904;2022-08-02T09:48:57;11.98;;;6.50;;
70744;SDS011;59284;31.390;34.904;2022-08-02T09:51:25;11.15;;;5.32;;
70744;SDS011;59284;31.390;34.904;2022-08-02T09:53:54;9.80;;;5.68;;
70744;SDS011;59284;31.390;34.904;2022-08-02T09:56:22;14.30;;;5.90;;
70744;SDS011;59284;31.390;34.904;2022-08-02T09:58:49;11.33;;;5.50;;
70744;SDS011;59284;31.390;34.904;2022-08-02T10:01:18;12.00;;;6.03;;
70744;SDS011;59284;31.390;34.904;2022-08-02T10:03:56;14.38;;;5.25;;
70744;SDS011;59284;31.390;34.904;2022-08-02T10:06:25;14.57;;;6.10;;
70744;SDS011;59284;31.390;34.904;2022-08-02T10:08:52;13.43;;;5.95;;
70744;SDS011;59284;31.390;34.904;2022-08-02T10:11:22;8.83;;;6.50;;
70744;SDS011;59284;31.390;34.904;2022-08-02T10:13:49;9.55;;;5.85;;
70744;SDS011;59284;31.390;34.904;2022-08-02T10:16:16;12.82;;;6.35;;
70744;SDS011;59284;31.390;34.904;2022-08-02T10:18:45;13.40;;;5.72;;
70744;SDS011;59284;31.390;34.904;2022-08-02T10:21:13;9.10;;;5.47;;
70744;SDS011;59284;31.390;34.904;2022-08-02T10:23:48;10.05;;;5.18;;
70744;SDS011;59284;31.390;34.904;2022-08-02T10:26:17;10.95;;;5.07;;
70744;SDS011;59284;31.390;34.904;2022-08-02T10:28:46;9.60;;;5.13;;
70744;SDS011;59284;31.390;34.904;2022-08-02T10:31:14;13.85;;;5.20;;
70744;SDS011;59284;31.390;34.904;2022-08-02T10:33:44;11.53;;;5.20;;
70744;SDS011;59284;31.390;34.904;2022-08-02T10:36:12;16.45;;;5.50;;
70744;SDS011;59284;31.390;34.904;2022-08-02T10:38:39;12.68;;;5.38;;
70744;SDS011;59284;31.390;34.904;2022-08-02T10:41:05;9.23;;;5.80;;
70744;SDS011;59284;31.390;34.904;2022-08-02T10:49:07;10.98;;;6.20;;
70744;SDS011;59284;31.390;34.904;2022-08-02T10:51:53;14.60;;;6.85;;
70744;SDS011;59284;31.390;34.904;2022-08-02T10:54:21;10.13;;;6.22;;
70744;SDS011;59284;31.390;34.904;2022-08-02T10:57:01;9.65;;;5.60;;
70744;SDS011;59284;31.390;34.904;2022-08-02T10:59:43;16.17;;;5.83;;
70744;SDS011;59284;31.390;34.904;2022-08-02T11:02:09;17.35;;;6.18;;
70744;SDS011;59284;31.390;34.904;2022-08-02T11:07:13;13.18;;;5.45;;
70744;SDS011;59284;31.390;34.904;2022-08-02T11:09:43;9.60;;;5.75;;
70744;SDS011;59284;31.390;34.904;2022-08-02T11:12:17;13.77;;;5.83;;
70744;SDS011;59284;31.390;34.904;2022-08-02T11:14:58;9.10;;;5.93;;
70744;SDS011;59284;31.390;34.904;2022-08-02T11:17:25;7.90;;;5.15;;
70744;SDS011;59284;31.390;34.904;2022-08-02T11:22:40;7.88;;;5.63;;
70744;SDS011;59284;31.390;34.904;2022-08-02T11:30:18;8.90;;;5.05;;
70744;SDS011;59284;31.390;34.904;2022-08-02T11:32:45;8.00;;;4.90;;
70744;SDS011;59284;31.390;34.904;2022-08-02T11:35:12;10.43;;;5.28;;
70744;SDS011;59284;31.390;34.904;2022-08-02T11:37:42;18.00;;;5.77;;
70744;SDS011;59284;31.390;34.904;2022-08-02T11:40:13;12.27;;;5.60;;
70744;SDS011;59284;31.390;34.904;2022-08-02T11:42:42;17.10;;;5.93;;
70744;SDS011;59284;31.390;34.904;2022-08-02T11:45:09;16.77;;;6.38;;
70744;SDS011;59284;31.390;34.904;2022-08-02T11:47:46;12.63;;;5.93;;
70744;SDS011;59284;31.390;34.904;2022-08-02T11:50:13;13.67;;;5.50;;
70744;SDS011;59284;31.390;34.904;2022-08-02T11:52:39;12.05;;;5.43;;
70744;SDS011;59284;31.390;34.904;2022-08-02T11:55:06;11.02;;;5.43;;
70744;SDS011;59284;31.390;34.904;2022-08-02T11:57:34;10.27;;;6.88;;
70744;SDS011;59284;31.390;34.904;2022-08-02T12:00:01;20.42;;;9.43;;
70744;SDS011;59284;31.390;34.904;2022-08-02T12:02:29;24.00;;;8.83;;
70744;SDS011;59284;31.390;34.904;2022-08-02T12:05:06;16.45;;;9.18;;
70744;SDS011;59284;31.390;34.904;2022-08-02T12:07:33;16.80;;;8.32;;
70744;SDS011;59284;31.390;34.904;2022-08-02T12:10:12;16.75;;;8.30;;
70744;SDS011;59284;31.390;34.904;2022-08-02T12:15:29;15.33;;;8.50;;
70744;SDS011;59284;31.390;34.904;2022-08-02T12:18:01;16.20;;;8.18;;
70744;SDS011;59284;31.390;34.904;2022-08-02T12:20:46;15.38;;;8.77;;
70744;SDS011;59284;31.390;34.904;2022-08-02T12:23:12;19.13;;;8.30;;
70744;SDS011;59284;31.390;34.904;2022-08-02T12:25:38;16.70;;;8.63;;
70744;SDS011;59284;31.390;34.904;2022-08-02T12:28:17;20.13;;;9.68;;
70744;SDS011;59284;31.390;34.904;2022-08-02T12:30:56;18.27;;;9.02;;
70744;SDS011;59284;31.390;34.904;2022-08-02T12:33:27;18.77;;;9.55;;
70744;SDS011;59284;31.390;34.904;2022-08-02T12:36:15;16.37;;;8.93;;
70744;SDS011;59284;31.390;34.904;2022-08-02T12:38:53;20.83;;;8.40;;
70744;SDS011;59284;31.390;34.904;2022-08-02T12:41:20;14.10;;;7.88;;
70744;SDS011;59284;31.390;34.904;2022-08-02T12:43:47;16.83;;;8.57;;
70744;SDS011;59284;31.390;34.904;2022-08-02T12:46:15;14.27;;;9.10;;
70744;SDS011;59284;31.390;34.904;2022-08-02T12:48:45;16.43;;;8.60;;
70744;SDS011;59284;31.390;34.904;2022-08-02T12:53:50;13.93;;;7.75;;
70744;SDS011;59284;31.390;34.904;2022-08-02T12:56:28;15.55;;;7.82;;
70744;SDS011;59284;31.390;34.904;2022-08-02T12:58:57;18.80;;;8.20;;
70744;SDS011;59284;31.390;34.904;2022-08-02T13:01:26;11.47;;;7.20;;
70744;SDS011;59284;31.390;34.904;2022-08-02T13:03:52;15.50;;;7.15;;
70744;SDS011;59284;31.390;34.904;2022-08-02T13:06:19;14.05;;;7.45;;
70744;SDS011;59284;31.390;34.904;2022-08-02T13:08:45;17.52;;;8.00;;
70744;SDS011;59284;31.390;34.904;2022-08-02T13:11:12;16.85;;;8.15;;
70744;SDS011;59284;31.390;34.904;2022-08-02T13:13:37;16.17;;;7.33;;
70744;SDS011;59284;31.390;34.904;2022-08-02T13:16:04;10.85;;;6.95;;
70744;SDS011;59284;31.390;34.904;2022-08-02T13:18:30;14.57;;;7.32;;
70744;SDS011;59284;31.390;34.904;2022-08-02T13:20:56;12.35;;;7.32;;
70744;SDS011;59284;31.390;34.904;2022-08-02T13:23:24;15.07;;;7.50;;
70744;SDS011;59284;31.390;34.904;2022-08-02T13:25:50;12.93;;;6.80;;
70744;SDS011;59284;31.390;34.904;2022-08-02T13:28:19;10.18;;;7.35;;
70744;SDS011;59284;31.390;34.904;2022-08-02T13:30:45;15.60;;;7.60;;
70744;SDS011;59284;31.390;34.904;2022-08-02T13:33:12;14.40;;;7.32;;
70744;SDS011;59284;31.390;34.904;2022-08-02T13:35:44;16.73;;;7.40;;
70744;SDS011;59284;31.390;34.904;2022-08-02T13:38:16;15.18;;;7.45;;
70744;SDS011;59284;31.390;34.904;2022-08-02T13:40:42;13.27;;;8.05;;
70744;SDS011;59284;31.390;34.904;2022-08-02T13:43:26;14.55;;;7.85;;
70744;SDS011;59284;31.390;34.904;2022-08-02T13:45:55;13.45;;;7.68;;
70744;SDS011;59284;31.390;34.904;2022-08-02T13:48:21;12.10;;;7.67;;
70744;SDS011;59284;31.390;34.904;2022-08-02T13:50:46;14.30;;;7.53;;
70744;SDS011;59284;31.390;34.904;2022-08-02T13:53:12;10.13;;;7.40;;
70744;SDS011;59284;31.390;34.904;2022-08-02T13:55:38;17.50;;;7.47;;
70744;SDS011;59284;31.390;34.904;2022-08-02T13:58:04;13.05;;;8.27;;
70744;SDS011;59284;31.390;34.904;2022-08-02T14:00:30;13.77;;;8.20;;
70744;SDS011;59284;31.390;34.904;2022-08-02T14:02:56;12.13;;;7.28;;
70744;SDS011;59284;31.390;34.904;2022-08-02T14:05:21;11.55;;;7.00;;
70744;SDS011;59284;31.390;34.904;2022-08-02T14:07:54;15.60;;;7.80;;
70744;SDS011;59284;31.390;34.904;2022-08-02T14:10:25;12.47;;;7.30;;
70744;SDS011;59284;31.390;34.904;2022-08-02T14:12:51;17.25;;;7.75;;
70744;SDS011;59284;31.390;34.904;2022-08-02T14:15:17;15.48;;;7.63;;
70744;SDS011;59284;31.390;34.904;2022-08-02T14:17:43;13.57;;;7.63;;
70744;SDS011;59284;31.390;34.904;2022-08-02T14:20:09;11.10;;;7.30;;
70744;SDS011;59284;31.390;34.904;2022-08-02T14:22:35;10.70;;;7.68;;
70744;SDS011;59284;31.390;34.904;2022-08-02T14:25:01;15.93;;;7.77;;
70744;SDS011;59284;31.390;34.904;2022-08-02T14:27:27;12.57;;;8.18;;
70744;SDS011;59284;31.390;34.904;2022-08-02T14:29:55;10.82;;;7.32;;
70744;SDS011;59284;31.390;34.904;2022-08-02T14:32:24;12.55;;;7.85;;
70744;SDS011;59284;31.390;34.904;2022-08-02T14:34:56;10.90;;;8.32;;
70744;SDS011;59284;31.390;34.904;2022-08-02T14:37:21;10.40;;;8.03;;
70744;SDS011;59284;31.390;34.904;2022-08-02T14:39:47;16.15;;;7.45;;
70744;SDS011;59284;31.390;34.904;2022-08-02T14:42:13;12.43;;;7.17;;
70744;SDS011;59284;31.390;34.904;2022-08-02T14:44:40;17.15;;;7.28;;
70744;SDS011;59284;31.390;34.904;2022-08-02T14:47:06;11.30;;;7.43;;
70744;SDS011;59284;31.390;34.904;2022-08-02T14:49:32;9.90;;;6.43;;
70744;SDS011;59284;31.390;34.904;2022-08-02T14:51:57;15.30;;;7.57;;
70744;SDS011;59284;31.390;34.904;2022-08-02T14:54:24;13.63;;;7.47;;
70744;SDS011;59284;31.390;34.904;2022-08-02T14:56:52;14.23;;;7.50;;
70744;SDS011;59284;31.390;34.904;2022-08-02T14:59:18;15.50;;;7.72;;
70744;SDS011;59284;31.390;34.904;2022-08-02T15:01:44;14.83;;;7.10;;
70744;SDS011;59284;31.390;34.904;2022-08-02T15:04:09;11.95;;;7.75;;
70744;SDS011;59284;31.390;34.904;2022-08-02T15:06:35;19.27;;;7.50;;
70744;SDS011;59284;31.390;34.904;2022-08-02T15:09:01;16.23;;;7.38;;
70744;SDS011;59284;31.390;34.904;2022-08-02T15:11:29;16.73;;;8.47;;
70744;SDS011;59284;31.390;34.904;2022-08-02T15:13:55;14.35;;;7.65;;
70744;SDS011;59284;31.390;34.904;2022-08-02T15:16:23;17.38;;;8.27;;
70744;SDS011;59284;31.390;34.904;2022-08-02T15:18:49;12.83;;;8.50;;
70744;SDS011;59284;31.390;34.904;2022-08-02T15:21:14;14.40;;;8.07;;
70744;SDS011;59284;31.390;34.904;2022-08-02T15:23:40;14.57;;;7.43;;
70744;SDS011;59284;31.390;34.904;2022-08-02T15:26:06;10.67;;;7.50;;
70744;SDS011;59284;31.390;34.904;2022-08-02T15:28:33;13.18;;;7.65;;
70744;SDS011;59284;31.390;34.904;2022-08-02T15:30:59;13.98;;;7.70;;
70744;SDS011;59284;31.390;34.904;2022-08-02T15:33:25;12.17;;;8.00;;
70744;SDS011;59284;31.390;34.904;2022-08-02T15:35:52;13.52;;;7.88;;
70744;SDS011;59284;31.390;34.904;2022-08-02T15:38:18;17.17;;;7.93;;
70744;SDS011;59284;31.390;34.904;2022-08-02T15:40:43;17.63;;;8.30;;
70744;SDS011;59284;31.390;34.904;2022-08-02T15:43:09;12.32;;;7.80;;
70744;SDS011;59284;31.390;34.904;2022-08-02T15:45:35;10.80;;;7.77;;